createdAt,value
2017-06-13T00:00:28.368Z,4.53
2017-06-13T00:02:56.456Z,4.13
2017-06-13T00:05:24.495Z,4.00
2017-06-13T00:07:52.580Z,4.67
2017-06-13T00:10:20.634Z,3.53
2017-06-13T00:12:48.707Z,4.40
2017-06-13T00:15:16.783Z,4.40
2017-06-13T00:17:44.872Z,4.37
2017-06-13T00:20:12.967Z,3.73
2017-06-13T00:22:41.047Z,4.00
2017-06-13T00:25:09.091Z,4.43
2017-06-13T00:27:37.158Z,3.50
2017-06-13T00:30:05.215Z,4.10
2017-06-13T00:32:33.302Z,4.10
2017-06-13T00:35:01.359Z,4.33
2017-06-13T00:37:30.186Z,4.87
2017-06-13T00:39:58.262Z,4.70
2017-06-13T00:42:26.324Z,4.73
2017-06-13T00:44:54.403Z,5.47
2017-06-13T00:47:22.447Z,4.23
2017-06-13T00:49:51.276Z,4.90
2017-06-13T00:52:19.347Z,5.53
2017-06-13T00:54:47.407Z,4.30
2017-06-13T00:57:15.474Z,4.70
2017-06-13T00:59:43.539Z,5.03
2017-06-13T01:02:11.591Z,5.10
2017-06-13T01:04:39.683Z,4.80
2017-06-13T01:07:07.750Z,4.67
2017-06-13T01:09:35.824Z,5.30
2017-06-13T01:12:03.925Z,4.63
2017-06-13T01:14:31.966Z,4.63
2017-06-13T01:17:00.014Z,4.60
2017-06-13T01:19:28.858Z,4.70
2017-06-13T01:21:57.351Z,5.23
2017-06-13T01:24:25.391Z,4.70
2017-06-13T01:26:53.452Z,4.80
2017-06-13T01:29:21.516Z,5.30
2017-06-13T01:31:49.594Z,4.70
2017-06-13T01:34:17.639Z,4.90
2017-06-13T01:36:45.731Z,5.10
2017-06-13T01:39:13.787Z,4.87
2017-06-13T01:41:41.831Z,4.60
2017-06-13T01:44:10.666Z,4.47
2017-06-13T01:46:38.765Z,4.53
2017-06-13T01:49:06.827Z,4.60
2017-06-13T01:51:34.902Z,4.97
2017-06-13T01:54:02.984Z,5.00
2017-06-13T01:56:31.010Z,5.17
2017-06-13T01:58:59.124Z,5.10
2017-06-13T02:01:27.191Z,4.50
2017-06-13T02:03:55.263Z,5.57
2017-06-13T02:06:23.326Z,5.43
2017-06-13T02:08:51.407Z,5.33
2017-06-13T02:11:19.478Z,5.90
2017-06-13T02:13:47.553Z,6.00
2017-06-13T02:16:15.614Z,5.40
2017-06-13T02:18:43.686Z,4.47
2017-06-13T02:21:11.730Z,4.40
2017-06-13T02:23:40.144Z,5.50
2017-06-13T02:26:08.177Z,5.00
2017-06-13T02:28:36.247Z,5.57
2017-06-13T02:31:04.327Z,6.00
2017-06-13T02:33:32.472Z,5.60
2017-06-13T02:36:01.363Z,5.57
2017-06-13T02:38:30.163Z,6.03
2017-06-13T02:40:58.240Z,4.93
2017-06-13T02:43:26.336Z,5.43
2017-06-13T02:45:54.425Z,5.20
2017-06-13T02:48:22.473Z,5.40
2017-06-13T02:50:50.563Z,5.53
2017-06-13T02:53:18.607Z,6.17
2017-06-13T02:55:46.671Z,5.63
2017-06-13T02:58:14.743Z,5.67
2017-06-13T03:00:42.803Z,5.87
2017-06-13T03:03:10.887Z,5.67
2017-06-13T03:05:38.963Z,5.33
2017-06-13T03:08:07.034Z,6.17
2017-06-13T03:10:35.103Z,5.57
2017-06-13T03:13:03.175Z,6.27
2017-06-13T03:15:31.255Z,5.33
2017-06-13T03:17:59.328Z,5.60
2017-06-13T03:20:27.371Z,5.67
2017-06-13T03:22:55.428Z,6.20
2017-06-13T03:25:23.499Z,6.00
2017-06-13T03:27:51.588Z,6.17
2017-06-13T03:30:19.669Z,6.10
2017-06-13T03:32:47.738Z,6.13
2017-06-13T03:35:15.801Z,5.70
2017-06-13T03:37:45.365Z,6.27
2017-06-13T03:40:13.395Z,6.80
2017-06-13T03:42:42.227Z,6.23
2017-06-13T03:45:10.314Z,6.50
2017-06-13T03:47:38.454Z,5.90
2017-06-13T03:50:07.248Z,6.37
2017-06-13T03:52:35.327Z,6.30
2017-06-13T03:55:03.403Z,6.20
2017-06-13T03:57:31.473Z,5.33
2017-06-13T03:59:59.526Z,6.30
2017-06-13T04:02:27.663Z,6.40
2017-06-13T04:04:55.716Z,5.93
2017-06-13T04:07:23.805Z,5.23
2017-06-13T04:09:52.675Z,6.37
2017-06-13T04:12:20.731Z,6.90
2017-06-13T04:14:48.846Z,6.60
2017-06-13T04:17:17.683Z,6.77
2017-06-13T04:19:45.736Z,6.80
2017-06-13T04:22:13.803Z,6.63
2017-06-13T04:24:41.866Z,6.60
2017-06-13T04:27:09.967Z,6.70
2017-06-13T04:29:38.027Z,6.87
2017-06-13T04:32:06.086Z,6.57
2017-06-13T04:34:34.187Z,7.20
2017-06-13T04:37:02.260Z,6.50
2017-06-13T04:39:30.306Z,7.27
2017-06-13T04:41:59.155Z,7.33
2017-06-13T04:44:27.226Z,7.33
2017-06-13T04:46:55.308Z,7.33
2017-06-13T04:49:23.386Z,5.93
2017-06-13T04:51:51.451Z,6.87
2017-06-13T04:54:19.532Z,6.70
2017-06-13T04:56:47.614Z,7.10
2017-06-13T04:59:15.648Z,6.10
2017-06-13T05:01:43.722Z,7.67
2017-06-13T05:04:11.779Z,8.07
2017-06-13T05:06:39.858Z,7.30
2017-06-13T05:09:07.918Z,8.43
2017-06-13T05:11:35.978Z,8.30
2017-06-13T05:14:04.063Z,7.57
2017-06-13T05:16:32.119Z,7.00
2017-06-13T05:19:00.767Z,7.47
2017-06-13T05:21:28.830Z,7.93
2017-06-13T05:23:56.908Z,7.60
2017-06-13T05:26:25.763Z,7.70
2017-06-13T05:28:53.817Z,7.60
2017-06-13T05:31:21.891Z,7.40
2017-06-13T05:33:49.959Z,8.57
2017-06-13T05:36:18.024Z,8.20
2017-06-13T05:38:46.091Z,7.80
2017-06-13T05:41:14.179Z,8.50
2017-06-13T05:43:43.010Z,8.20
2017-06-13T05:46:11.078Z,8.70
2017-06-13T05:48:39.138Z,7.70
2017-06-13T05:51:07.209Z,8.10
2017-06-13T05:53:35.293Z,9.00
2017-06-13T05:56:03.355Z,9.03
2017-06-13T05:58:31.443Z,9.10
2017-06-13T06:00:59.580Z,8.90
2017-06-13T06:03:28.484Z,8.33
2017-06-13T06:05:57.322Z,10.00
2017-06-13T06:08:25.381Z,9.00
2017-06-13T06:10:53.434Z,9.70
2017-06-13T06:13:21.519Z,9.70
2017-06-13T06:15:49.574Z,9.60
2017-06-13T06:18:17.660Z,8.97
2017-06-13T06:20:45.711Z,9.10
2017-06-13T06:23:13.783Z,9.20
2017-06-13T06:25:41.856Z,8.80
2017-06-13T06:28:09.951Z,8.70
2017-06-13T06:30:38.034Z,8.60
2017-06-13T06:33:06.086Z,9.40
2017-06-13T06:35:34.151Z,8.60
2017-06-13T06:38:02.234Z,9.20
2017-06-13T06:40:30.300Z,8.50
2017-06-13T06:42:58.386Z,9.30
2017-06-13T06:45:26.486Z,9.33
2017-06-13T06:47:55.326Z,9.67
2017-06-13T06:50:23.398Z,10.77
2017-06-13T06:52:51.469Z,9.50
2017-06-13T06:55:21.214Z,9.60
2017-06-13T06:57:49.258Z,9.57
2017-06-13T07:00:17.328Z,9.40
2017-06-13T07:02:45.418Z,9.50
2017-06-13T07:05:13.491Z,9.10
2017-06-13T07:07:41.547Z,9.97
2017-06-13T07:10:09.643Z,11.87
2017-06-13T07:12:37.708Z,11.37
2017-06-13T07:15:05.790Z,10.67
2017-06-13T07:17:34.635Z,12.47
2017-06-13T07:20:02.691Z,13.27
2017-06-13T07:22:30.771Z,10.13
2017-06-13T07:24:58.843Z,11.60
2017-06-13T07:27:26.932Z,11.70
2017-06-13T07:29:55.004Z,12.50
2017-06-13T07:32:23.071Z,11.93
2017-06-13T07:34:51.146Z,9.30
2017-06-13T07:37:19.199Z,6.73
2017-06-13T07:39:47.259Z,6.00
2017-06-13T07:42:15.343Z,6.50
2017-06-13T07:44:43.425Z,7.57
2017-06-13T07:47:11.490Z,7.63
2017-06-13T07:49:39.567Z,8.37
2017-06-13T07:52:07.638Z,9.53
2017-06-13T07:54:35.723Z,9.20
2017-06-13T07:57:03.787Z,11.40
2017-06-13T07:59:31.888Z,11.63
2017-06-13T08:02:00.790Z,9.50
2017-06-13T08:04:28.879Z,8.17
2017-06-13T08:06:56.960Z,6.80
2017-06-13T08:09:25.019Z,6.90
2017-06-13T08:11:53.105Z,6.60
2017-06-13T08:14:21.174Z,7.03
2017-06-13T08:16:49.255Z,6.87
2017-06-13T08:19:17.319Z,7.27
2017-06-13T08:21:45.415Z,7.23
2017-06-13T08:24:13.457Z,7.47
2017-06-13T08:26:41.523Z,8.43
2017-06-13T08:29:09.603Z,8.27
2017-06-13T08:31:39.676Z,7.97
2017-06-13T08:34:07.729Z,8.90
2017-06-13T08:36:35.809Z,7.60
2017-06-13T08:39:03.886Z,6.97
2017-06-13T08:41:31.971Z,7.20
2017-06-13T08:44:00.033Z,7.90
2017-06-13T08:46:28.116Z,6.80
2017-06-13T08:48:56.218Z,7.80
2017-06-13T08:51:24.254Z,8.23
2017-06-13T08:53:52.339Z,8.77
2017-06-13T08:56:20.425Z,8.47
2017-06-13T08:58:48.481Z,7.80
2017-06-13T09:01:16.585Z,10.30
2017-06-13T09:03:44.659Z,9.00
2017-06-13T09:06:12.758Z,9.00
2017-06-13T09:08:41.631Z,10.20
2017-06-13T09:11:09.698Z,9.13
2017-06-13T09:13:37.762Z,9.47
2017-06-13T09:16:05.844Z,10.40
2017-06-13T09:18:34.682Z,11.30
2017-06-13T09:21:02.766Z,11.13
2017-06-13T09:23:30.828Z,9.73
2017-06-13T09:25:58.922Z,9.10
2017-06-13T09:28:27.006Z,8.50
2017-06-13T09:30:55.063Z,8.40
2017-06-13T09:33:23.119Z,7.37
2017-06-13T09:35:51.198Z,8.77
2017-06-13T09:38:19.277Z,7.30
2017-06-13T09:40:47.356Z,8.10
2017-06-13T09:43:15.431Z,7.30
2017-06-13T09:45:43.493Z,8.43
2017-06-13T09:48:11.557Z,8.20
2017-06-13T09:50:39.651Z,8.13
2017-06-13T09:53:07.714Z,7.30
2017-06-13T09:55:35.816Z,7.97
2017-06-13T09:58:04.630Z,7.60
2017-06-13T10:00:32.713Z,6.50
2017-06-13T10:03:00.788Z,6.00
2017-06-13T10:05:28.854Z,5.77
2017-06-13T10:07:56.959Z,6.37
2017-06-13T10:10:25.018Z,5.33
2017-06-13T10:12:53.079Z,4.83
2017-06-13T10:15:21.161Z,5.37
2017-06-13T10:17:49.242Z,5.50
2017-06-13T10:20:17.300Z,4.90
2017-06-13T10:22:45.403Z,4.30
2017-06-13T10:25:13.451Z,4.13
2017-06-13T10:27:41.530Z,4.43
2017-06-13T10:30:09.618Z,4.67
2017-06-13T10:32:38.463Z,6.10
2017-06-13T10:35:06.527Z,5.33
2017-06-13T10:37:34.586Z,5.50
2017-06-13T10:40:02.654Z,4.67
2017-06-13T10:42:31.529Z,5.50
2017-06-13T10:45:00.347Z,4.90
2017-06-13T10:47:28.430Z,5.23
2017-06-13T10:49:56.705Z,4.90
2017-06-13T10:52:24.757Z,3.83
2017-06-13T10:54:52.839Z,3.67
2017-06-13T10:57:20.916Z,4.10
2017-06-13T10:59:48.996Z,3.70
2017-06-13T11:02:17.068Z,4.00
2017-06-13T11:04:45.147Z,3.03
2017-06-13T11:07:13.225Z,3.57
2017-06-13T11:09:41.284Z,3.03
2017-06-13T11:12:09.327Z,3.03
2017-06-13T11:14:37.565Z,3.20
2017-06-13T11:17:05.626Z,3.07
2017-06-13T11:19:33.698Z,3.20
2017-06-13T11:22:01.816Z,3.47
2017-06-13T11:24:30.621Z,3.50
2017-06-13T11:26:58.756Z,2.93
2017-06-13T11:29:27.619Z,3.23
2017-06-13T11:31:55.698Z,3.80
2017-06-13T11:34:23.791Z,3.97
2017-06-13T11:36:52.622Z,2.80
2017-06-13T11:39:20.696Z,3.20
2017-06-13T11:41:49.310Z,3.30
2017-06-13T11:44:17.367Z,3.87
2017-06-13T11:46:45.439Z,3.70
2017-06-13T11:49:13.512Z,3.23
2017-06-13T11:51:41.575Z,3.83
2017-06-13T11:54:09.646Z,3.00
2017-06-13T11:56:37.744Z,3.10
2017-06-13T11:59:05.811Z,3.40
2017-06-13T12:01:33.881Z,3.20
2017-06-13T12:04:01.939Z,3.70
2017-06-13T12:06:30.049Z,3.77
2017-06-13T12:08:58.136Z,4.17
2017-06-13T12:11:26.959Z,3.70
2017-06-13T12:13:55.032Z,3.00
2017-06-13T12:16:23.102Z,2.73
2017-06-13T12:18:51.170Z,4.73
2017-06-13T12:21:31.923Z,4.23
2017-06-13T12:24:00.716Z,3.60
2017-06-13T12:26:28.766Z,3.47
2017-06-13T12:28:56.852Z,3.37
2017-06-13T12:31:24.930Z,4.03
2017-06-13T12:33:52.973Z,3.77
2017-06-13T12:36:21.806Z,3.60
2017-06-13T12:38:49.886Z,4.63
2017-06-13T12:41:17.964Z,4.13
2017-06-13T12:43:47.539Z,3.27
2017-06-13T12:46:15.606Z,4.27
2017-06-13T12:48:43.686Z,3.90
2017-06-13T12:51:11.741Z,3.73
2017-06-13T12:53:41.207Z,4.87
2017-06-13T12:56:09.248Z,3.83
2017-06-13T12:58:37.330Z,3.60
2017-06-13T13:01:05.403Z,3.50
2017-06-13T13:03:33.468Z,3.47
2017-06-13T13:06:01.524Z,3.37
2017-06-13T13:08:29.611Z,3.23
2017-06-13T13:10:57.707Z,3.43
2017-06-13T13:13:25.798Z,3.37
2017-06-13T13:15:53.847Z,3.33
2017-06-13T13:18:21.916Z,3.97
2017-06-13T13:20:50.000Z,3.90
2017-06-13T13:23:18.055Z,3.13
2017-06-13T13:25:46.143Z,3.40
2017-06-13T13:28:14.202Z,3.20
2017-06-13T13:30:42.258Z,3.80
2017-06-13T13:33:10.360Z,3.63
2017-06-13T13:35:38.432Z,4.20
2017-06-13T13:38:06.495Z,3.40
2017-06-13T13:40:35.199Z,3.63
2017-06-13T13:43:04.747Z,3.70
2017-06-13T13:45:32.812Z,3.50
2017-06-13T13:48:00.877Z,3.17
2017-06-13T13:50:28.930Z,4.13
2017-06-13T13:52:57.004Z,2.90
2017-06-13T13:55:25.075Z,3.77
2017-06-13T13:57:53.148Z,4.10
2017-06-13T14:00:21.242Z,3.77
2017-06-13T14:02:49.328Z,4.60
2017-06-13T14:05:17.404Z,3.27
2017-06-13T14:07:45.808Z,3.60
2017-06-13T14:10:14.697Z,4.00
2017-06-13T14:12:43.572Z,3.53
2017-06-13T14:15:11.645Z,3.43
2017-06-13T14:17:39.720Z,4.40
2017-06-13T14:20:07.830Z,3.43
2017-06-13T14:22:35.923Z,3.60
2017-06-13T14:25:04.021Z,3.90
2017-06-13T14:27:32.096Z,3.80
2017-06-13T14:30:00.235Z,3.60
2017-06-13T14:32:28.341Z,2.93
2017-06-13T14:34:56.389Z,3.40
2017-06-13T14:37:25.175Z,3.80
2017-06-13T14:39:53.250Z,4.00
2017-06-13T14:42:21.315Z,3.40
2017-06-13T14:44:49.375Z,3.50
2017-06-13T14:47:17.440Z,3.70
2017-06-13T14:49:45.526Z,3.60
2017-06-13T14:52:13.595Z,3.47
2017-06-13T14:54:41.676Z,3.40
2017-06-13T14:57:09.746Z,3.57
2017-06-13T14:59:37.807Z,3.33
2017-06-13T15:02:05.911Z,3.70
2017-06-13T15:04:34.013Z,3.50
2017-06-13T15:07:02.075Z,4.37
2017-06-13T15:09:30.919Z,4.20
2017-06-13T15:11:58.982Z,4.50
2017-06-13T15:14:27.050Z,3.90
2017-06-13T15:16:55.784Z,3.90
2017-06-13T15:19:23.866Z,4.93
2017-06-13T15:21:52.687Z,4.70
2017-06-13T15:24:21.686Z,5.20
2017-06-13T15:26:49.762Z,4.27
2017-06-13T15:29:17.834Z,4.67
2017-06-13T15:31:45.899Z,4.07
2017-06-13T15:34:13.974Z,3.83
2017-06-13T15:36:42.040Z,3.70
2017-06-13T15:39:10.206Z,3.90
2017-06-13T15:41:38.250Z,3.43
2017-06-13T15:44:07.084Z,3.50
2017-06-13T15:46:35.926Z,3.57
2017-06-13T15:49:04.599Z,6.17
2017-06-13T15:51:32.663Z,5.23
2017-06-13T15:54:00.739Z,4.50
2017-06-13T15:56:28.799Z,4.60
2017-06-13T15:58:56.876Z,4.30
2017-06-13T16:01:24.942Z,4.30
2017-06-13T16:03:53.020Z,5.53
2017-06-13T16:06:21.080Z,5.30
2017-06-13T16:08:49.342Z,4.83
2017-06-13T16:11:17.431Z,4.50
2017-06-13T16:13:45.564Z,3.70
2017-06-13T16:16:13.602Z,4.13
2017-06-13T16:18:41.694Z,4.07
2017-06-13T16:21:09.727Z,3.77
2017-06-13T16:23:37.825Z,3.70
2017-06-13T16:26:05.903Z,3.40
2017-06-13T16:28:33.965Z,4.10
2017-06-13T16:31:02.062Z,4.03
2017-06-13T16:33:30.987Z,3.90
2017-06-13T16:35:59.069Z,4.10
2017-06-13T16:38:27.175Z,4.50
2017-06-13T16:40:55.251Z,4.00
2017-06-13T16:43:23.375Z,4.27
2017-06-13T16:45:51.453Z,4.10
2017-06-13T16:48:19.515Z,3.90
2017-06-13T16:50:47.624Z,3.80
2017-06-13T16:53:15.720Z,3.97
2017-06-13T16:55:43.791Z,4.80
2017-06-13T16:58:11.904Z,4.17
2017-06-13T17:00:39.983Z,3.80
2017-06-13T17:03:08.064Z,4.07
2017-06-13T17:05:36.396Z,4.90
2017-06-13T17:08:04.527Z,4.33
2017-06-13T17:10:32.611Z,3.60
2017-06-13T17:13:00.707Z,3.70
2017-06-13T17:15:30.307Z,4.30
2017-06-13T17:17:59.152Z,3.73
2017-06-13T17:20:27.309Z,3.90
2017-06-13T17:22:55.378Z,3.57
2017-06-13T17:25:23.480Z,3.60
2017-06-13T17:27:51.555Z,3.60
2017-06-13T17:30:19.661Z,4.27
2017-06-13T17:32:47.815Z,4.27
2017-06-13T17:35:15.882Z,4.70
2017-06-13T17:37:43.947Z,3.60
2017-06-13T17:40:12.159Z,4.30
2017-06-13T17:42:40.227Z,4.20
2017-06-13T17:45:09.040Z,4.00
2017-06-13T17:47:37.897Z,4.43
2017-06-13T17:50:06.592Z,4.50
2017-06-13T17:52:34.676Z,4.27
2017-06-13T17:55:02.739Z,4.77
2017-06-13T17:57:30.795Z,4.00
2017-06-13T17:59:58.903Z,4.10
2017-06-13T18:02:26.965Z,4.20
2017-06-13T18:04:55.067Z,4.17
2017-06-13T18:07:23.891Z,4.00
2017-06-13T18:09:51.962Z,4.10
2017-06-13T18:12:20.029Z,4.17
2017-06-13T18:14:48.115Z,3.93
2017-06-13T18:17:16.198Z,4.33
2017-06-13T18:19:44.327Z,3.67
2017-06-13T18:22:13.345Z,4.07
2017-06-13T18:24:41.398Z,3.80
2017-06-13T18:27:09.511Z,3.07
2017-06-13T18:29:37.606Z,3.00
2017-06-13T18:32:05.663Z,3.30
2017-06-13T18:34:34.564Z,3.80
2017-06-13T18:37:03.414Z,3.77
2017-06-13T18:39:31.485Z,2.90
2017-06-13T18:41:59.542Z,2.30
2017-06-13T18:44:27.607Z,2.70
2017-06-13T18:46:55.665Z,2.50
2017-06-13T18:49:23.739Z,2.50
2017-06-13T18:51:51.806Z,2.80
2017-06-13T18:54:19.924Z,2.97
2017-06-13T18:56:47.988Z,2.70
2017-06-13T18:59:16.076Z,2.93
2017-06-13T19:01:44.144Z,3.33
2017-06-13T19:04:12.203Z,3.00
2017-06-13T19:06:40.282Z,3.10
2017-06-13T19:09:08.376Z,2.90
2017-06-13T19:11:36.539Z,2.40
2017-06-13T19:14:04.885Z,3.50
2017-06-13T19:16:32.931Z,3.00
2017-06-13T19:19:01.119Z,3.07
2017-06-13T19:21:30.038Z,3.67
2017-06-13T19:23:58.853Z,2.73
2017-06-13T19:26:26.958Z,3.00
2017-06-13T19:28:55.027Z,2.73
2017-06-13T19:31:23.098Z,2.70
2017-06-13T19:33:51.191Z,3.03
2017-06-13T19:36:20.035Z,2.50
2017-06-13T19:38:48.109Z,2.80
2017-06-13T19:41:16.167Z,3.10
2017-06-13T19:43:44.262Z,3.00
2017-06-13T19:46:12.327Z,3.23
2017-06-13T19:48:41.148Z,2.80
2017-06-13T19:51:09.227Z,2.73
2017-06-13T19:53:37.280Z,2.77
2017-06-13T19:56:05.363Z,3.23
2017-06-13T19:58:33.442Z,4.03
2017-06-13T20:01:01.502Z,3.70
2017-06-13T20:03:29.611Z,2.57
2017-06-13T20:05:57.666Z,2.60
2017-06-13T20:08:25.798Z,3.03
2017-06-13T20:10:54.624Z,2.60
2017-06-13T20:13:22.689Z,2.80
2017-06-13T20:15:50.756Z,2.53
2017-06-13T20:18:18.831Z,2.77
2017-06-13T20:20:46.886Z,3.57
2017-06-13T20:23:14.996Z,2.93
2017-06-13T20:25:48.867Z,2.90
2017-06-13T20:28:16.961Z,3.10
2017-06-13T20:30:45.009Z,2.80
2017-06-13T20:33:13.141Z,2.97
2017-06-13T20:35:41.268Z,6.40
2017-06-13T20:38:09.331Z,4.27
2017-06-13T20:40:37.405Z,3.57
2017-06-13T20:43:05.685Z,2.90
2017-06-13T20:45:33.784Z,3.10
2017-06-13T20:48:01.912Z,3.50
2017-06-13T20:50:29.956Z,3.13
2017-06-13T20:52:58.022Z,3.53
2017-06-13T20:55:26.167Z,3.63
2017-06-13T20:57:54.212Z,3.57
2017-06-13T21:00:23.063Z,4.20
2017-06-13T21:02:51.123Z,3.97
2017-06-13T21:05:19.188Z,3.60
2017-06-13T21:07:47.255Z,3.97
2017-06-13T21:10:15.316Z,3.80
2017-06-13T21:12:43.385Z,3.93
2017-06-13T21:15:11.495Z,4.03
2017-06-13T21:17:39.537Z,4.03
2017-06-13T21:20:07.591Z,3.83
2017-06-13T21:22:35.691Z,3.50
2017-06-13T21:25:03.758Z,3.80
2017-06-13T21:27:31.896Z,3.70
2017-06-13T21:30:00.707Z,4.00
2017-06-13T21:32:28.763Z,3.67
2017-06-13T21:34:56.861Z,3.80
2017-06-13T21:37:24.903Z,3.87
2017-06-13T21:39:52.979Z,3.57
2017-06-13T21:42:21.061Z,3.40
2017-06-13T21:44:49.116Z,3.60
2017-06-13T21:47:17.206Z,3.77
2017-06-13T21:49:45.254Z,4.33
2017-06-13T21:52:13.287Z,4.20
2017-06-13T21:54:41.367Z,4.13
2017-06-13T21:57:09.451Z,4.10
2017-06-13T21:59:37.520Z,4.00
2017-06-13T22:02:05.571Z,4.50
2017-06-13T22:04:33.646Z,4.60
2017-06-13T22:07:01.710Z,4.83
2017-06-13T22:09:29.792Z,4.23
2017-06-13T22:11:57.850Z,4.20
2017-06-13T22:14:25.907Z,4.53
2017-06-13T22:16:53.987Z,4.97
2017-06-13T22:19:22.030Z,5.50
2017-06-13T22:21:50.895Z,5.90
2017-06-13T22:24:18.958Z,4.60
2017-06-13T22:26:47.010Z,4.33
2017-06-13T22:29:15.107Z,5.03
2017-06-13T22:31:43.159Z,5.07
2017-06-13T22:34:11.254Z,4.63
2017-06-13T22:36:39.302Z,4.87
2017-06-13T22:39:07.352Z,4.80
2017-06-13T22:41:35.666Z,5.30
2017-06-13T22:44:03.779Z,5.27
2017-06-13T22:46:32.692Z,4.90
2017-06-13T22:49:01.495Z,5.33
2017-06-13T22:51:29.546Z,4.63
2017-06-13T22:53:57.607Z,5.73
2017-06-13T22:56:25.670Z,4.60
2017-06-13T22:58:53.743Z,5.43
2017-06-13T23:01:21.816Z,5.40
2017-06-13T23:03:49.892Z,5.83
2017-06-13T23:06:17.947Z,5.47
2017-06-13T23:08:46.018Z,5.77
2017-06-13T23:11:14.063Z,5.57
2017-06-13T23:13:42.884Z,6.10
2017-06-13T23:16:10.958Z,6.00
2017-06-13T23:18:39.026Z,6.30
2017-06-13T23:21:07.198Z,5.00
2017-06-13T23:23:36.003Z,5.20
2017-06-13T23:26:04.079Z,5.73
2017-06-13T23:28:32.162Z,5.80
2017-06-13T23:31:00.230Z,5.23
2017-06-13T23:33:28.298Z,5.50
2017-06-13T23:35:56.445Z,6.43
2017-06-13T23:38:25.236Z,5.53
2017-06-13T23:40:53.286Z,5.77
2017-06-13T23:43:22.147Z,5.70
2017-06-13T23:45:50.214Z,6.50
2017-06-13T23:48:18.264Z,5.30
2017-06-13T23:50:46.331Z,5.50
2017-06-13T23:53:14.391Z,6.17
2017-06-13T23:55:42.466Z,5.30
2017-06-13T23:58:10.510Z,5.50
